Terminal Aerodrome Forecast
Issued by NWS Jackson, MS

Home | Current Version | Previous Version | Text Only | Print | Product List | Glossary On
Versions: 1 2 3 4 5 6 7 8 9 10 11 12 13
287
FTUS44 KMEG 281131
TAFTUP
TAF
KTUP 281131Z 2812/2912 VRB03KT P6SM SKC
     FM281400 26008KT P6SM SKC
     FM281800 27010G17KT P6SM FEW070
     FM290100 36008KT P6SM BKN070=

USA.gov is the U.S. government's official web portal to all federal, state and local government web resources and services.